sensor_id;sensor_type;location;lat;lon;timestamp;pressure;altitude;pressure_sealevel;temperature;humidity
19795;BME280;10057;59.402;17.866;2023-03-03T00:01:13;101294.22;;;4.30;50.96
19795;BME280;10057;59.402;17.866;2023-03-03T00:03:41;101290.72;;;4.27;50.79
19795;BME280;10057;59.402;17.866;2023-03-03T00:06:10;101296.00;;;4.27;51.31
19795;BME280;10057;59.402;17.866;2023-03-03T00:08:38;101288.97;;;4.26;50.99
19795;BME280;10057;59.402;17.866;2023-03-03T00:11:06;101281.97;;;4.25;51.15
19795;BME280;10057;59.402;17.866;2023-03-03T00:13:46;101286.34;;;4.25;51.04
19795;BME280;10057;59.402;17.866;2023-03-03T00:18:50;101287.25;;;4.18;51.49
19795;BME280;10057;59.402;17.866;2023-03-03T00:21:31;101277.63;;;4.15;51.64
19795;BME280;10057;59.402;17.866;2023-03-03T00:24:16;101291.63;;;4.13;51.66
19795;BME280;10057;59.402;17.866;2023-03-03T00:26:51;101278.50;;;4.08;51.38
19795;BME280;10057;59.402;17.866;2023-03-03T00:31:47;101276.78;;;4.01;52.13
19795;BME280;10057;59.402;17.866;2023-03-03T00:34:25;101282.91;;;3.98;51.77
19795;BME280;10057;59.402;17.866;2023-03-03T00:36:57;101279.38;;;3.96;51.82
19795;BME280;10057;59.402;17.866;2023-03-03T00:39:35;101262.78;;;3.94;51.96
19795;BME280;10057;59.402;17.866;2023-03-03T00:42:14;101271.53;;;3.92;51.80
19795;BME280;10057;59.402;17.866;2023-03-03T00:44:45;101274.19;;;3.90;52.06
19795;BME280;10057;59.402;17.866;2023-03-03T00:47:34;101270.66;;;3.88;52.07
19795;BME280;10057;59.402;17.866;2023-03-03T00:52:43;101268.06;;;3.87;52.37
19795;BME280;10057;59.402;17.866;2023-03-03T00:55:10;101272.41;;;3.88;51.97
19795;BME280;10057;59.402;17.866;2023-03-03T00:57:37;101265.41;;;3.88;52.18
19795;BME280;10057;59.402;17.866;2023-03-03T01:00:04;101269.78;;;3.89;52.15
19795;BME280;10057;59.402;17.866;2023-03-03T01:02:31;101268.06;;;3.90;52.02
19795;BME280;10057;59.402;17.866;2023-03-03T01:04:58;101265.44;;;3.90;52.17
19795;BME280;10057;59.402;17.866;2023-03-03T01:07:24;101261.91;;;3.89;52.23
19795;BME280;10057;59.402;17.866;2023-03-03T01:09:51;101265.44;;;3.90;52.01
19795;BME280;10057;59.402;17.866;2023-03-03T01:12:18;101265.44;;;3.90;51.93
19795;BME280;10057;59.402;17.866;2023-03-03T01:14:45;101250.53;;;3.89;51.96
19795;BME280;10057;59.402;17.866;2023-03-03T01:17:14;101257.56;;;3.90;51.85
19795;BME280;10057;59.402;17.866;2023-03-03T01:19:41;101265.41;;;3.88;51.93
19795;BME280;10057;59.402;17.866;2023-03-03T01:22:08;101253.16;;;3.86;51.98
19795;BME280;10057;59.402;17.866;2023-03-03T01:24:35;101256.66;;;3.85;51.85
19795;BME280;10057;59.402;17.866;2023-03-03T01:27:01;101256.66;;;3.85;51.95
19795;BME280;10057;59.402;17.866;2023-03-03T01:29:28;101251.44;;;3.83;51.92
19795;BME280;10057;59.402;17.866;2023-03-03T01:31:55;101250.53;;;3.83;51.84
19795;BME280;10057;59.402;17.866;2023-03-03T01:34:23;101261.91;;;3.82;51.90
19795;BME280;10057;59.402;17.866;2023-03-03T01:36:50;101267.19;;;3.80;52.02
19795;BME280;10057;59.402;17.866;2023-03-03T01:39:16;101254.91;;;3.76;52.08
19795;BME280;10057;59.402;17.866;2023-03-03T01:41:43;101242.69;;;3.76;52.29
19795;BME280;10057;59.402;17.866;2023-03-03T01:44:13;101252.31;;;3.74;52.11
19795;BME280;10057;59.402;17.866;2023-03-03T01:47:14;101240.94;;;3.72;51.95
19795;BME280;10057;59.402;17.866;2023-03-03T01:49:49;101246.22;;;3.69;52.04
19795;BME280;10057;59.402;17.866;2023-03-03T01:52:22;101245.31;;;3.67;52.13
19795;BME280;10057;59.402;17.866;2023-03-03T01:54:56;101233.94;;;3.65;52.16
19795;BME280;10057;59.402;17.866;2023-03-03T01:57:32;101234.84;;;3.63;52.40
19795;BME280;10057;59.402;17.866;2023-03-03T02:00:01;101236.59;;;3.59;52.50
19795;BME280;10057;59.402;17.866;2023-03-03T02:02:29;101232.19;;;3.55;52.32
19795;BME280;10057;59.402;17.866;2023-03-03T02:04:56;101232.19;;;3.52;52.50
19795;BME280;10057;59.402;17.866;2023-03-03T02:07:26;101220.81;;;3.48;52.52
19795;BME280;10057;59.402;17.866;2023-03-03T02:12:27;101245.34;;;3.43;52.84
19795;BME280;10057;59.402;17.866;2023-03-03T02:14:57;101233.09;;;3.39;52.79
19795;BME280;10057;59.402;17.866;2023-03-03T02:17:23;101231.34;;;3.36;53.08
19795;BME280;10057;59.402;17.866;2023-03-03T02:20:08;101226.97;;;3.30;53.02
19795;BME280;10057;59.402;17.866;2023-03-03T02:22:45;101235.69;;;3.28;53.22
19795;BME280;10057;59.402;17.866;2023-03-03T02:25:21;101228.69;;;3.27;53.04
19795;BME280;10057;59.402;17.866;2023-03-03T02:27:51;101229.56;;;3.27;53.38
19795;BME280;10057;59.402;17.866;2023-03-03T02:30:20;101231.34;;;3.25;53.11
19795;BME280;10057;59.402;17.866;2023-03-03T02:32:47;101237.44;;;3.24;53.35
19795;BME280;10057;59.402;17.866;2023-03-03T02:35:40;101239.19;;;3.24;53.19
19795;BME280;10057;59.402;17.866;2023-03-03T02:38:31;101235.72;;;3.22;53.41
19795;BME280;10057;59.402;17.866;2023-03-03T02:41:28;101235.69;;;3.20;53.48
19795;BME280;10057;59.402;17.866;2023-03-03T02:44:04;101243.56;;;3.19;53.42
19795;BME280;10057;59.402;17.866;2023-03-03T02:46:40;101236.56;;;3.16;53.63
19795;BME280;10057;59.402;17.866;2023-03-03T02:49:09;101244.44;;;3.15;53.35
19795;BME280;10057;59.402;17.866;2023-03-03T02:51:36;101239.19;;;3.18;53.66
19795;BME280;10057;59.402;17.866;2023-03-03T02:54:04;101242.69;;;3.15;53.77
19795;BME280;10057;59.402;17.866;2023-03-03T02:56:31;101240.06;;;3.14;53.68
19795;BME280;10057;59.402;17.866;2023-03-03T02:58:59;101243.53;;;3.11;54.07
19795;BME280;10057;59.402;17.866;2023-03-03T03:01:25;101235.69;;;3.13;53.72
19795;BME280;10057;59.402;17.866;2023-03-03T03:03:52;101241.81;;;3.13;53.79
19795;BME280;10057;59.402;17.866;2023-03-03T03:06:19;101236.56;;;3.13;53.88
19795;BME280;10057;59.402;17.866;2023-03-03T03:08:46;101235.66;;;3.11;53.82
19795;BME280;10057;59.402;17.866;2023-03-03T03:11:12;101226.06;;;3.10;53.71
19795;BME280;10057;59.402;17.866;2023-03-03T03:13:39;101222.59;;;3.08;54.12
19795;BME280;10057;59.402;17.866;2023-03-03T03:16:06;101227.84;;;3.08;54.12
19795;BME280;10057;59.402;17.866;2023-03-03T03:18:33;101241.78;;;3.07;53.95
19795;BME280;10057;59.402;17.866;2023-03-03T03:21:08;101230.44;;;3.06;54.02
19795;BME280;10057;59.402;17.866;2023-03-03T03:23:34;101228.69;;;3.07;54.13
19795;BME280;10057;59.402;17.866;2023-03-03T03:26:02;101224.31;;;3.06;53.83
19795;BME280;10057;59.402;17.866;2023-03-03T03:28:29;101220.81;;;3.05;54.01
19795;BME280;10057;59.402;17.866;2023-03-03T03:30:56;101222.56;;;3.03;53.67
19795;BME280;10057;59.402;17.866;2023-03-03T03:33:23;101220.84;;;3.01;53.94
19795;BME280;10057;59.402;17.866;2023-03-03T03:35:50;101218.22;;;3.01;53.56
19795;BME280;10057;59.402;17.866;2023-03-03T03:38:17;101218.19;;;2.99;53.85
19795;BME280;10057;59.402;17.866;2023-03-03T03:40:43;101218.19;;;2.96;53.67
19795;BME280;10057;59.402;17.866;2023-03-03T03:43:10;101222.56;;;2.96;54.04
19795;BME280;10057;59.402;17.866;2023-03-03T03:45:37;101221.69;;;2.92;54.17
19795;BME280;10057;59.402;17.866;2023-03-03T03:48:04;101217.31;;;2.88;53.97
19795;BME280;10057;59.402;17.866;2023-03-03T03:50:30;101210.28;;;2.87;54.46
19795;BME280;10057;59.402;17.866;2023-03-03T03:52:57;101217.31;;;2.85;54.29
19795;BME280;10057;59.402;17.866;2023-03-03T03:55:24;101223.41;;;2.81;54.28
19795;BME280;10057;59.402;17.866;2023-03-03T03:57:51;101233.88;;;2.79;54.23
19795;BME280;10057;59.402;17.866;2023-03-03T04:00:17;101226.88;;;2.78;54.33
19795;BME280;10057;59.402;17.866;2023-03-03T04:02:44;101213.78;;;2.75;54.58
19795;BME280;10057;59.402;17.866;2023-03-03T04:05:11;101209.41;;;2.73;54.24
19795;BME280;10057;59.402;17.866;2023-03-03T04:07:38;101211.13;;;2.69;54.63
19795;BME280;10057;59.402;17.866;2023-03-03T04:10:05;101218.97;;;2.66;54.54
19795;BME280;10057;59.402;17.866;2023-03-03T04:12:32;101210.25;;;2.63;54.78
19795;BME280;10057;59.402;17.866;2023-03-03T04:15:08;101205.00;;;2.59;55.20
19795;BME280;10057;59.402;17.866;2023-03-03T04:17:36;101205.88;;;2.58;55.04
19795;BME280;10057;59.402;17.866;2023-03-03T04:20:04;101194.53;;;2.58;54.93
19795;BME280;10057;59.402;17.866;2023-03-03T04:22:31;101207.63;;;2.58;54.59
19795;BME280;10057;59.402;17.866;2023-03-03T04:25:00;101214.59;;;2.54;54.59
19795;BME280;10057;59.402;17.866;2023-03-03T04:27:34;101203.25;;;2.51;55.36
19795;BME280;10057;59.402;17.866;2023-03-03T04:30:03;101205.00;;;2.50;55.00
19795;BME280;10057;59.402;17.866;2023-03-03T04:32:30;101204.97;;;2.49;55.10
19795;BME280;10057;59.402;17.866;2023-03-03T04:34:59;101201.47;;;2.44;55.46
19795;BME280;10057;59.402;17.866;2023-03-03T04:37:36;101192.72;;;2.42;55.47
19795;BME280;10057;59.402;17.866;2023-03-03T04:40:05;101198.81;;;2.39;55.48
19795;BME280;10057;59.402;17.866;2023-03-03T04:42:32;101195.31;;;2.35;55.44
19795;BME280;10057;59.402;17.866;2023-03-03T04:44:59;101201.44;;;2.33;55.42
19795;BME280;10057;59.402;17.866;2023-03-03T04:47:26;101198.78;;;2.31;55.43
19795;BME280;10057;59.402;17.866;2023-03-03T04:49:53;101197.91;;;2.31;55.75
19795;BME280;10057;59.402;17.866;2023-03-03T04:52:19;101183.09;;;2.30;55.63
19795;BME280;10057;59.402;17.866;2023-03-03T04:54:46;101185.69;;;2.28;56.15
19795;BME280;10057;59.402;17.866;2023-03-03T04:57:13;101186.56;;;2.26;56.34
19795;BME280;10057;59.402;17.866;2023-03-03T04:59:39;101186.53;;;2.24;55.86
19795;BME280;10057;59.402;17.866;2023-03-03T05:02:06;101176.94;;;2.22;56.03
19795;BME280;10057;59.402;17.866;2023-03-03T05:04:33;101178.69;;;2.21;56.38
19795;BME280;10057;59.402;17.866;2023-03-03T05:06:59;101176.06;;;2.20;56.08
19795;BME280;10057;59.402;17.866;2023-03-03T05:09:26;101162.09;;;2.18;56.59
19795;BME280;10057;59.402;17.866;2023-03-03T05:11:53;101162.06;;;2.14;56.19
19795;BME280;10057;59.402;17.866;2023-03-03T05:14:20;101166.47;;;2.16;56.11
19795;BME280;10057;59.402;17.866;2023-03-03T05:16:47;101173.41;;;2.15;56.84
19795;BME280;10057;59.402;17.866;2023-03-03T05:19:13;101167.28;;;2.11;56.50
19795;BME280;10057;59.402;17.866;2023-03-03T05:21:40;101166.41;;;2.11;56.51
19795;BME280;10057;59.402;17.866;2023-03-03T05:24:09;101166.44;;;2.12;56.68
19795;BME280;10057;59.402;17.866;2023-03-03T05:26:36;101155.94;;;2.11;56.42
19795;BME280;10057;59.402;17.866;2023-03-03T05:29:03;101147.22;;;2.09;56.52
19795;BME280;10057;59.402;17.866;2023-03-03T05:31:29;101145.47;;;2.08;56.81
19795;BME280;10057;59.402;17.866;2023-03-03T05:33:56;101143.72;;;2.07;56.61
19795;BME280;10057;59.402;17.866;2023-03-03T05:36:23;101145.47;;;2.06;56.87
19795;BME280;10057;59.402;17.866;2023-03-03T05:38:50;101158.56;;;2.06;56.83
19795;BME280;10057;59.402;17.866;2023-03-03T05:41:17;101147.22;;;2.06;56.96
19795;BME280;10057;59.402;17.866;2023-03-03T05:43:44;101153.28;;;2.05;56.88
19795;BME280;10057;59.402;17.866;2023-03-03T05:46:11;101154.19;;;2.04;57.23
19795;BME280;10057;59.402;17.866;2023-03-03T05:48:38;101149.81;;;2.00;57.19
19795;BME280;10057;59.402;17.866;2023-03-03T05:51:05;101152.41;;;2.00;57.66
19795;BME280;10057;59.402;17.866;2023-03-03T05:53:31;101157.66;;;2.00;57.29
19795;BME280;10057;59.402;17.866;2023-03-03T05:55:58;101151.56;;;1.99;57.55
19795;BME280;10057;59.402;17.866;2023-03-03T05:58:25;101146.28;;;1.98;57.62
19795;BME280;10057;59.402;17.866;2023-03-03T06:00:52;101143.69;;;1.98;57.66
19795;BME280;10057;59.402;17.866;2023-03-03T06:03:19;101141.94;;;1.97;57.67
19795;BME280;10057;59.402;17.866;2023-03-03T06:05:46;101146.28;;;1.95;58.06
19795;BME280;10057;59.402;17.866;2023-03-03T06:08:13;101143.66;;;1.95;57.85
19795;BME280;10057;59.402;17.866;2023-03-03T06:10:39;101138.44;;;1.95;57.76
19795;BME280;10057;59.402;17.866;2023-03-03T06:13:06;101128.84;;;1.95;57.80
19795;BME280;10057;59.402;17.866;2023-03-03T06:15:33;101136.69;;;1.97;57.91
19795;BME280;10057;59.402;17.866;2023-03-03T06:17:59;101131.47;;;1.97;57.57
19795;BME280;10057;59.402;17.866;2023-03-03T06:20:26;101135.81;;;1.98;57.79
19795;BME280;10057;59.402;17.866;2023-03-03T06:22:53;101133.19;;;1.98;57.82
19795;BME280;10057;59.402;17.866;2023-03-03T06:25:20;101129.75;;;1.99;57.94
19795;BME280;10057;59.402;17.866;2023-03-03T06:27:46;101128.88;;;2.00;57.64
19795;BME280;10057;59.402;17.866;2023-03-03T06:30:13;101127.13;;;1.99;57.62
19795;BME280;10057;59.402;17.866;2023-03-03T06:32:40;101131.47;;;2.00;57.98
19795;BME280;10057;59.402;17.866;2023-03-03T06:35:07;101131.47;;;2.01;57.61
19795;BME280;10057;59.402;17.866;2023-03-03T06:37:34;101135.00;;;2.02;57.76
19795;BME280;10057;59.402;17.866;2023-03-03T06:40:00;101127.13;;;2.05;57.39
19795;BME280;10057;59.402;17.866;2023-03-03T06:42:27;101125.41;;;2.05;57.54
19795;BME280;10057;59.402;17.866;2023-03-03T06:44:54;101127.13;;;2.08;57.04
19795;BME280;10057;59.402;17.866;2023-03-03T06:47:20;101135.88;;;2.10;57.17
19795;BME280;10057;59.402;17.866;2023-03-03T06:49:47;101137.63;;;2.14;57.66
19795;BME280;10057;59.402;17.866;2023-03-03T06:52:19;101128.94;;;2.17;57.27
19795;BME280;10057;59.402;17.866;2023-03-03T06:54:50;101133.31;;;2.19;57.36
19795;BME280;10057;59.402;17.866;2023-03-03T06:57:27;101128.06;;;2.22;57.23
19795;BME280;10057;59.402;17.866;2023-03-03T06:59:59;101129.84;;;2.26;56.53
19795;BME280;10057;59.402;17.866;2023-03-03T07:02:28;101120.25;;;2.30;57.09
19795;BME280;10057;59.402;17.866;2023-03-03T07:04:55;101124.59;;;2.32;56.84
19795;BME280;10057;59.402;17.866;2023-03-03T07:07:24;101124.63;;;2.34;56.93
19795;BME280;10057;59.402;17.866;2023-03-03T07:09:53;101129.88;;;2.40;56.80
19795;BME280;10057;59.402;17.866;2023-03-03T07:12:22;101122.91;;;2.44;56.51
19795;BME280;10057;59.402;17.866;2023-03-03T07:14:52;101121.13;;;2.46;56.63
19795;BME280;10057;59.402;17.866;2023-03-03T07:17:24;101121.16;;;2.50;56.66
19795;BME280;10057;59.402;17.866;2023-03-03T07:19:51;101106.31;;;2.52;56.50
19795;BME280;10057;59.402;17.866;2023-03-03T07:22:19;101109.81;;;2.56;56.57
19795;BME280;10057;59.402;17.866;2023-03-03T07:24:56;101100.22;;;2.61;56.45
19795;BME280;10057;59.402;17.866;2023-03-03T07:27:28;101093.22;;;2.63;56.65
19795;BME280;10057;59.402;17.866;2023-03-03T07:30:27;101102.84;;;2.67;56.48
19795;BME280;10057;59.402;17.866;2023-03-03T07:32:57;101094.09;;;2.70;56.28
19795;BME280;10057;59.402;17.866;2023-03-03T07:38:24;101084.50;;;2.79;56.58
19795;BME280;10057;59.402;17.866;2023-03-03T07:40:57;101074.03;;;2.85;56.29
19795;BME280;10057;59.402;17.866;2023-03-03T07:43:37;101080.16;;;2.91;56.53
19795;BME280;10057;59.402;17.866;2023-03-03T07:46:25;101067.91;;;2.99;56.50
19795;BME280;10057;59.402;17.866;2023-03-03T07:48:57;101051.28;;;3.06;56.07
19795;BME280;10057;59.402;17.866;2023-03-03T07:51:27;101060.91;;;3.13;56.00
19795;BME280;10057;59.402;17.866;2023-03-03T07:54:29;101063.50;;;3.21;55.97
19795;BME280;10057;59.402;17.866;2023-03-03T07:59:47;101046.00;;;3.35;55.66
19795;BME280;10057;59.402;17.866;2023-03-03T08:02:36;101042.47;;;3.44;55.65
19795;BME280;10057;59.402;17.866;2023-03-03T08:05:35;101036.28;;;3.55;55.36
19795;BME280;10057;59.402;17.866;2023-03-03T08:13:20;101003.00;;;3.73;54.65
19795;BME280;10057;59.402;17.866;2023-03-03T08:15:52;101012.59;;;3.75;54.70
19795;BME280;10057;59.402;17.866;2023-03-03T08:18:24;101015.22;;;3.75;54.40
19795;BME280;10057;59.402;17.866;2023-03-03T08:21:00;101013.50;;;3.74;54.85
19795;BME280;10057;59.402;17.866;2023-03-03T08:23:27;101018.69;;;3.82;54.72
19795;BME280;10057;59.402;17.866;2023-03-03T08:25:54;101006.44;;;3.83;54.51
19795;BME280;10057;59.402;17.866;2023-03-03T08:28:21;101006.41;;;3.86;54.40
19795;BME280;10057;59.402;17.866;2023-03-03T08:30:48;101016.03;;;3.91;54.24
19795;BME280;10057;59.402;17.866;2023-03-03T08:33:16;100998.53;;;3.92;54.18
19795;BME280;10057;59.402;17.866;2023-03-03T08:35:44;100995.00;;;3.96;54.19
19795;BME280;10057;59.402;17.866;2023-03-03T08:38:14;100993.25;;;3.98;53.99
19795;BME280;10057;59.402;17.866;2023-03-03T08:40:41;101000.22;;;4.02;54.18
19795;BME280;10057;59.402;17.866;2023-03-03T08:43:08;101001.03;;;4.09;53.81
19795;BME280;10057;59.402;17.866;2023-03-03T08:45:35;101004.53;;;4.11;53.76
19795;BME280;10057;59.402;17.866;2023-03-03T08:48:02;101005.41;;;4.11;53.81
19795;BME280;10057;59.402;17.866;2023-03-03T08:50:32;100994.88;;;4.17;53.79
19795;BME280;10057;59.402;17.866;2023-03-03T08:52:59;100978.19;;;4.24;54.14
19795;BME280;10057;59.402;17.866;2023-03-03T08:55:25;100975.50;;;4.31;53.92
19795;BME280;10057;59.402;17.866;2023-03-03T08:57:52;100963.22;;;4.33;53.32
19795;BME280;10057;59.402;17.866;2023-03-03T09:00:19;100979.00;;;4.33;53.33
19795;BME280;10057;59.402;17.866;2023-03-03T09:02:46;100960.59;;;4.34;53.48
19795;BME280;10057;59.402;17.866;2023-03-03T09:05:15;100965.81;;;4.37;53.44
19795;BME280;10057;59.402;17.866;2023-03-03T09:07:43;100954.41;;;4.41;53.71
19795;BME280;10057;59.402;17.866;2023-03-03T09:10:16;100956.97;;;4.44;53.22
19795;BME280;10057;59.402;17.866;2023-03-03T09:12:46;100937.72;;;4.47;53.11
19795;BME280;10057;59.402;17.866;2023-03-03T09:15:28;100963.13;;;4.48;53.31
19795;BME280;10057;59.402;17.866;2023-03-03T09:18:12;100925.44;;;4.47;52.67
19795;BME280;10057;59.402;17.866;2023-03-03T09:20:45;100924.56;;;4.48;52.68
19795;BME280;10057;59.402;17.866;2023-03-03T09:23:30;100915.81;;;4.48;52.95
19795;BME280;10057;59.402;17.866;2023-03-03T09:28:49;100903.53;;;4.50;52.49
19795;BME280;10057;59.402;17.866;2023-03-03T09:31:44;100897.38;;;4.51;52.95
19795;BME280;10057;59.402;17.866;2023-03-03T09:34:21;100892.09;;;4.56;52.90
19795;BME280;10057;59.402;17.866;2023-03-03T09:36:51;100884.16;;;4.60;53.10
19795;BME280;10057;59.402;17.866;2023-03-03T09:39:23;100868.34;;;4.63;53.00
19795;BME280;10057;59.402;17.866;2023-03-03T09:44:59;100870.03;;;4.70;52.93
19795;BME280;10057;59.402;17.866;2023-03-03T09:47:58;100860.34;;;4.74;52.90
19795;BME280;10057;59.402;17.866;2023-03-03T09:50:43;100844.50;;;4.80;53.25
19795;BME280;10057;59.402;17.866;2023-03-03T09:56:00;100828.59;;;4.92;52.93
19795;BME280;10057;59.402;17.866;2023-03-03T10:04:17;100815.31;;;5.03;52.52
19795;BME280;10057;59.402;17.866;2023-03-03T10:12:34;100827.66;;;4.95;52.44
19795;BME280;10057;59.402;17.866;2023-03-03T10:15:26;100831.16;;;4.97;52.92
19795;BME280;10057;59.402;17.866;2023-03-03T10:29:27;100815.69;;;4.72;53.55
19795;BME280;10057;59.402;17.866;2023-03-03T10:37:30;100836.97;;;4.49;54.81
19795;BME280;10057;59.402;17.866;2023-03-03T10:40:04;100827.50;;;4.33;56.49
19795;BME280;10057;59.402;17.866;2023-03-03T10:54:17;100794.44;;;3.00;64.90
19795;BME280;10057;59.402;17.866;2023-03-03T10:57:32;100796.25;;;2.89;66.05
19795;BME280;10057;59.402;17.866;2023-03-03T11:02:22;100774.50;;;2.65;67.06
19795;BME280;10057;59.402;17.866;2023-03-03T11:07:47;100747.47;;;2.60;67.20
19795;BME280;10057;59.402;17.866;2023-03-03T11:13:14;100732.66;;;2.54;67.35
19795;BME280;10057;59.402;17.866;2023-03-03T11:19:05;100705.59;;;2.51;66.60
19795;BME280;10057;59.402;17.866;2023-03-03T11:33:34;100664.66;;;2.36;68.36
19795;BME280;10057;59.402;17.866;2023-03-03T11:36:15;100665.50;;;2.40;68.58
19795;BME280;10057;59.402;17.866;2023-03-03T11:38:58;100662.00;;;2.44;68.41
19795;BME280;10057;59.402;17.866;2023-03-03T11:44:39;100648.00;;;2.51;68.50
19795;BME280;10057;59.402;17.866;2023-03-03T11:50:52;100627.84;;;2.60;69.04
19795;BME280;10057;59.402;17.866;2023-03-03T11:55:38;100603.34;;;2.66;68.85
19795;BME280;10057;59.402;17.866;2023-03-03T12:01:19;100583.25;;;2.71;69.37
19795;BME280;10057;59.402;17.866;2023-03-03T12:04:00;100574.44;;;2.81;69.10
19795;BME280;10057;59.402;17.866;2023-03-03T12:10:00;100528.84;;;3.01;69.10
19795;BME280;10057;59.402;17.866;2023-03-03T12:12:54;100513.97;;;3.04;68.78
19795;BME280;10057;59.402;17.866;2023-03-03T12:15:36;100505.19;;;3.08;68.98
19795;BME280;10057;59.402;17.866;2023-03-03T12:21:14;100475.41;;;3.13;69.00
19795;BME280;10057;59.402;17.866;2023-03-03T12:24:15;100471.88;;;3.17;69.09
19795;BME280;10057;59.402;17.866;2023-03-03T12:38:14;100443.06;;;3.15;70.40
19795;BME280;10057;59.402;17.866;2023-03-03T12:46:44;100434.19;;;3.28;70.68
19795;BME280;10057;59.402;17.866;2023-03-03T12:49:12;100437.59;;;3.33;70.86
19795;BME280;10057;59.402;17.866;2023-03-03T12:59:49;100405.75;;;3.61;69.75
19795;BME280;10057;59.402;17.866;2023-03-03T13:05:23;100401.13;;;3.78;68.88
19795;BME280;10057;59.402;17.866;2023-03-03T13:16:03;100358.66;;;4.09;65.77
19795;BME280;10057;59.402;17.866;2023-03-03T13:18:53;100340.19;;;4.15;63.96
19795;BME280;10057;59.402;17.866;2023-03-03T13:26:52;100309.22;;;4.34;62.02
19795;BME280;10057;59.402;17.866;2023-03-03T13:29:29;100310.03;;;4.36;62.16
19795;BME280;10057;59.402;17.866;2023-03-03T13:32:04;100291.59;;;4.39;61.41
19795;BME280;10057;59.402;17.866;2023-03-03T13:34:55;100295.06;;;4.41;60.75
19795;BME280;10057;59.402;17.866;2023-03-03T13:37:36;100282.75;;;4.43;60.35
19795;BME280;10057;59.402;17.866;2023-03-03T13:40:20;100273.97;;;4.46;59.69
19795;BME280;10057;59.402;17.866;2023-03-03T13:43:18;100263.41;;;4.47;58.92
19795;BME280;10057;59.402;17.866;2023-03-03T13:45:57;100265.16;;;4.48;59.25
19795;BME280;10057;59.402;17.866;2023-03-03T14:01:56;100185.53;;;4.87;56.42
19795;BME280;10057;59.402;17.866;2023-03-03T14:05:10;100180.88;;;4.98;56.01
19795;BME280;10057;59.402;17.866;2023-03-03T14:07:22;100173.63;;;5.08;54.53
19795;BME280;10057;59.402;17.866;2023-03-03T14:12:41;100164.44;;;5.26;54.12
19795;BME280;10057;59.402;17.866;2023-03-03T14:15:23;100163.44;;;5.31;53.60
19795;BME280;10057;59.402;17.866;2023-03-03T14:20:47;100149.09;;;5.43;54.12
19795;BME280;10057;59.402;17.866;2023-03-03T14:23:20;100147.19;;;5.50;53.38
19795;BME280;10057;59.402;17.866;2023-03-03T14:25:58;100153.06;;;5.59;53.31
19795;BME280;10057;59.402;17.866;2023-03-03T14:28:39;100151.09;;;5.67;53.18
19795;BME280;10057;59.402;17.866;2023-03-03T14:34:14;100147.31;;;5.78;52.74
19795;BME280;10057;59.402;17.866;2023-03-03T14:36:57;100124.44;;;5.80;52.33
19795;BME280;10057;59.402;17.866;2023-03-03T14:41:57;100116.41;;;5.84;51.55
19795;BME280;10057;59.402;17.866;2023-03-03T14:44:35;100127.72;;;5.88;51.47
19795;BME280;10057;59.402;17.866;2023-03-03T14:49:39;100132.84;;;5.94;51.66
19795;BME280;10057;59.402;17.866;2023-03-03T14:54:47;100132.84;;;5.94;51.51
19795;BME280;10057;59.402;17.866;2023-03-03T14:57:20;100124.97;;;5.94;51.05
19795;BME280;10057;59.402;17.866;2023-03-03T15:00:07;100116.97;;;5.97;50.80
19795;BME280;10057;59.402;17.866;2023-03-03T15:02:41;100121.38;;;5.97;51.46
19795;BME280;10057;59.402;17.866;2023-03-03T15:07:38;100117.84;;;5.98;51.62
19795;BME280;10057;59.402;17.866;2023-03-03T15:10:06;100113.44;;;5.98;51.38
19795;BME280;10057;59.402;17.866;2023-03-03T15:12:34;100115.13;;;6.01;51.02
19795;BME280;10057;59.402;17.866;2023-03-03T15:17:44;100102.88;;;6.00;50.18
19795;BME280;10057;59.402;17.866;2023-03-03T15:29:23;100099.84;;;5.81;49.31
19795;BME280;10057;59.402;17.866;2023-03-03T15:32:00;100099.94;;;5.78;49.79
19795;BME280;10057;59.402;17.866;2023-03-03T15:37:12;100084.41;;;5.68;50.31
19795;BME280;10057;59.402;17.866;2023-03-03T15:40:02;100082.78;;;5.64;50.25
19795;BME280;10057;59.402;17.866;2023-03-03T15:55:37;100090.13;;;5.52;50.19
19795;BME280;10057;59.402;17.866;2023-03-03T16:01:06;100083.09;;;5.52;50.35
19795;BME280;10057;59.402;17.866;2023-03-03T16:03:38;100077.84;;;5.52;50.22
19795;BME280;10057;59.402;17.866;2023-03-03T16:06:37;100084.81;;;5.53;49.99
19795;BME280;10057;59.402;17.866;2023-03-03T16:17:29;100077.59;;;5.61;50.99
19795;BME280;10057;59.402;17.866;2023-03-03T16:20:14;100064.38;;;5.63;50.74
19795;BME280;10057;59.402;17.866;2023-03-03T16:25:35;100067.91;;;5.62;50.71
19795;BME280;10057;59.402;17.866;2023-03-03T16:30:49;100062.81;;;5.57;51.15
19795;BME280;10057;59.402;17.866;2023-03-03T16:41:59;100048.72;;;5.58;51.57
19795;BME280;10057;59.402;17.866;2023-03-03T16:55:27;100047.91;;;5.56;49.58
19795;BME280;10057;59.402;17.866;2023-03-03T17:01:00;100037.38;;;5.56;50.35
19795;BME280;10057;59.402;17.866;2023-03-03T17:06:35;100060.94;;;5.61;50.16
19795;BME280;10057;59.402;17.866;2023-03-03T17:15:19;100039.84;;;5.62;51.19
19795;BME280;10057;59.402;17.866;2023-03-03T17:20:52;100021.50;;;5.59;51.29
19795;BME280;10057;59.402;17.866;2023-03-03T17:35:07;100023.91;;;5.36;53.36
19795;BME280;10057;59.402;17.866;2023-03-03T17:45:34;100008.03;;;5.39;52.09
19795;BME280;10057;59.402;17.866;2023-03-03T17:51:35;100020.97;;;5.46;50.77
19795;BME280;10057;59.402;17.866;2023-03-03T17:54:38;100017.41;;;5.49;49.57
19795;BME280;10057;59.402;17.866;2023-03-03T17:59:58;100017.25;;;5.54;48.84
19795;BME280;10057;59.402;17.866;2023-03-03T18:06:10;100024.75;;;5.67;42.18
19795;BME280;10057;59.402;17.866;2023-03-03T18:12:02;100039.63;;;5.70;43.87
19795;BME280;10057;59.402;17.866;2023-03-03T18:23:44;100028.59;;;5.57;42.22